Time;durP1;ratioP1;P1;durP2;ratioP2;P2;SDS_P1;SDS_P2;PMS_P1;PMS_P2;Temp;Humidity;BMP_temperature;BMP_pressure;BME280_temperature;BME280_humidity;BME280_pressure;Samples;Min_cycle;Max_cycle;Signal;HPM_P1;HPM_P2
2023/03/11 00:01:39;;;;;;;2.20;1.00;;;8.30;67.50;;;;;;2448179;54;21382;-71
2023/03/11 00:04:08;;;;;;;1.98;0.82;;;8.20;67.90;;;;;;2301908;56;20953;-71
2023/03/11 00:06:34;;;;;;;1.48;0.68;;;8.20;67.80;;;;;;2458620;54;20989;-71
2023/03/11 00:09:01;;;;;;;1.80;0.75;;;8.20;67.80;;;;;;2307141;56;20973;-71
2023/03/11 00:11:27;;;;;;;1.90;0.80;;;8.20;67.80;;;;;;2305690;55;21069;-71
2023/03/11 00:13:53;;;;;;;2.08;0.95;;;8.20;67.80;;;;;;2330084;54;21016;-71
2023/03/11 00:16:19;;;;;;;1.90;0.82;;;8.20;67.80;;;;;;2386039;54;21016;-71
2023/03/11 00:18:49;;;;;;;3.60;1.10;;;8.20;67.80;;;;;;2307038;56;21459;-71
2023/03/11 00:21:16;;;;;;;4.07;1.25;;;8.10;68.20;;;;;;2307105;56;20950;-71
2023/03/11 00:23:42;;;;;;;2.10;0.80;;;8.10;67.60;;;;;;2307200;56;21488;-71
2023/03/11 00:26:08;;;;;;;1.80;0.70;;;8.10;67.60;;;;;;2307034;56;21505;-71
2023/03/11 00:28:34;;;;;;;2.28;0.80;;;8.10;67.50;;;;;;2307419;55;20945;-71
2023/03/11 00:31:01;;;;;;;2.95;0.93;;;8.10;67.50;;;;;;2307558;56;21546;-71
2023/03/11 00:33:27;;;;;;;1.92;0.73;;;8.10;67.50;;;;;;2307112;55;20957;-71
2023/03/11 00:35:53;;;;;;;3.55;0.95;;;8.00;67.30;;;;;;2429311;54;20961;-71
2023/03/11 00:38:19;;;;;;;1.48;0.73;;;8.00;67.20;;;;;;2302124;56;20959;-71
2023/03/11 00:40:46;;;;;;;2.47;0.90;;;8.00;67.10;;;;;;2298736;55;21601;-70
2023/03/11 00:43:12;;;;;;;2.22;1.00;;;7.90;67.10;;;;;;2397168;54;21000;-71
2023/03/11 00:45:39;;;;;;;2.00;0.85;;;7.90;67.00;;;;;;2298820;56;20973;-71
2023/03/11 00:48:05;;;;;;;2.28;0.95;;;7.90;67.00;;;;;;2302353;54;20933;-71
2023/03/11 00:50:33;;;;;;;2.83;1.12;;;7.80;66.90;;;;;;2298735;56;20965;-70
2023/03/11 00:52:59;;;;;;;2.30;1.00;;;7.80;66.90;;;;;;2298539;55;21812;-71
2023/03/11 00:55:30;;;;;;;3.35;1.10;;;7.70;66.80;;;;;;2298315;56;21482;-71
2023/03/11 00:58:00;;;;;;;5.30;1.10;;;7.70;66.70;;;;;;2297848;56;20968;-71
2023/03/11 01:00:27;;;;;;;2.92;1.30;;;7.70;66.70;;;;;;2297102;56;20961;-71
2023/03/11 01:02:53;;;;;;;3.28;1.17;;;7.60;66.90;;;;;;2298007;55;20968;-71
2023/03/11 01:05:21;;;;;;;3.40;1.40;;;7.60;66.80;;;;;;2297505;56;20937;-71
2023/03/11 01:07:47;;;;;;;2.50;1.30;;;7.60;66.80;;;;;;2296969;55;21542;-71
2023/03/11 01:10:13;;;;;;;2.45;1.30;;;7.50;66.70;;;;;;2336910;54;21375;-70
2023/03/11 01:12:40;;;;;;;3.35;1.30;;;7.50;66.80;;;;;;2387060;53;22013;-71
2023/03/11 01:15:06;;;;;;;2.00;1.00;;;7.50;66.80;;;;;;2297564;56;20965;-70
2023/03/11 01:17:33;;;;;;;2.40;0.90;;;7.40;66.80;;;;;;2297253;55;21444;-71
2023/03/11 01:19:59;;;;;;;3.08;1.30;;;7.40;66.80;;;;;;2410113;54;20969;-70
2023/03/11 01:22:25;;;;;;;2.65;1.00;;;7.40;66.80;;;;;;2297171;56;20960;-70
2023/03/11 01:24:51;;;;;;;4.07;1.05;;;7.40;66.80;;;;;;2314126;54;21005;-71
2023/03/11 01:27:17;;;;;;;3.40;1.20;;;7.30;66.90;;;;;;2297429;56;20965;-70
2023/03/11 01:29:44;;;;;;;2.30;1.00;;;7.30;66.90;;;;;;2297231;56;21906;-70
2023/03/11 01:32:10;;;;;;;2.40;1.00;;;7.30;67.70;;;;;;2295669;56;20961;-70
2023/03/11 01:34:37;;;;;;;2.95;1.00;;;7.20;66.90;;;;;;2300270;54;21787;-71
2023/03/11 01:37:03;;;;;;;4.65;1.00;;;7.30;67.00;;;;;;2297180;56;21607;-70
2023/03/11 01:39:29;;;;;;;3.42;0.98;;;7.20;67.00;;;;;;2296718;55;21572;-71
2023/03/11 01:41:55;;;;;;;2.12;1.10;;;7.20;67.00;;;;;;2297641;56;20989;-70
2023/03/11 01:44:22;;;;;;;3.95;0.95;;;7.20;67.00;;;;;;2528838;54;21020;-70
2023/03/11 01:48:18;;;;;;;3.90;1.40;;;7.20;67.00;;;;;;2386733;54;20962;-70
2023/03/11 01:50:47;;;;;;;1.92;0.70;;;7.10;65.60;;;;;;2300582;56;21222;-70
2023/03/11 01:53:13;;;;;;;2.17;0.90;;;7.20;67.10;;;;;;2297159;55;21489;-70
2023/03/11 01:55:40;;;;;;;2.22;0.88;;;7.20;67.10;;;;;;2297427;56;20949;-70
2023/03/11 01:58:07;;;;;;;3.75;1.30;;;7.10;67.00;;;;;;2297612;56;21384;-71
2023/03/11 02:00:34;;;;;;;2.58;1.10;;;7.10;67.00;;;;;;2298441;55;21056;-70
2023/03/11 02:03:02;;;;;;;3.45;0.90;;;7.10;67.00;;;;;;2298760;56;21500;-70
2023/03/11 02:05:28;;;;;;;3.00;1.10;;;7.10;67.00;;;;;;2297561;56;21017;-70
2023/03/11 02:07:54;;;;;;;3.40;0.95;;;7.10;67.00;;;;;;2298341;55;21033;-70
2023/03/11 02:10:20;;;;;;;2.28;1.00;;;7.00;66.80;;;;;;2409454;54;21479;-70
2023/03/11 02:12:47;;;;;;;2.78;1.10;;;7.00;66.80;;;;;;2536374;54;21450;-70
2023/03/11 02:15:13;;;;;;;2.58;1.17;;;7.00;66.80;;;;;;2298579;56;21033;-70
2023/03/11 02:17:40;;;;;;;3.45;1.42;;;6.90;66.70;;;;;;2536204;54;21025;-71
2023/03/11 02:20:49;;;;;;;2.00;1.10;;;6.90;66.80;;;;;;2298139;56;21033;-71
2023/03/11 02:23:16;;;;;;;3.40;1.35;;;6.90;66.30;;;;;;2298486;56;20997;-70
2023/03/11 02:28:28;;;;;;;2.50;1.20;;;6.80;66.80;;;;;;2341535;54;20981;-70
2023/03/11 02:30:54;;;;;;;2.33;0.95;;;6.90;66.70;;;;;;2323121;54;21544;-70
2023/03/11 02:33:20;;;;;;;1.42;0.80;;;6.80;66.90;;;;;;2338075;54;21048;-70
2023/03/11 02:35:46;;;;;;;2.85;1.05;;;6.80;66.90;;;;;;2297376;55;21316;-71
2023/03/11 02:38:13;;;;;;;3.50;0.90;;;6.70;66.80;;;;;;2297579;55;21517;-70
2023/03/11 02:40:48;;;;;;;2.30;1.00;;;6.70;66.80;;;;;;2297902;55;21478;-70
2023/03/11 02:43:16;;;;;;;2.87;1.10;;;6.70;67.50;;;;;;2298342;55;21513;-70
2023/03/11 02:45:43;;;;;;;1.55;0.70;;;6.70;66.80;;;;;;2418038;54;20945;-70
2023/03/11 02:48:09;;;;;;;3.75;0.93;;;6.60;66.70;;;;;;2325076;55;21006;-70
2023/03/11 02:50:36;;;;;;;2.97;0.80;;;6.60;66.70;;;;;;2297706;55;21430;-70
2023/03/11 02:53:03;;;;;;;1.58;0.70;;;6.60;66.70;;;;;;2274335;56;21599;-70
2023/03/11 02:55:29;;;;;;;2.42;0.75;;;6.60;66.70;;;;;;2274279;56;20943;-70
2023/03/11 02:57:55;;;;;;;1.52;0.60;;;6.50;66.70;;;;;;2275262;56;21479;-70
2023/03/11 03:00:22;;;;;;;2.60;0.70;;;6.50;66.70;;;;;;2274970;56;20971;-70
2023/03/11 03:02:52;;;;;;;1.45;0.70;;;6.50;66.70;;;;;;2297621;56;21001;-71
2023/03/11 03:05:21;;;;;;;2.20;0.95;;;6.50;66.70;;;;;;2301320;56;20922;-70
2023/03/11 03:07:48;;;;;;;3.45;0.90;;;6.40;66.60;;;;;;2301291;55;21216;-70
2023/03/11 03:10:14;;;;;;;1.58;0.70;;;6.40;66.60;;;;;;2301279;56;20949;-70
2023/03/11 03:12:41;;;;;;;3.45;0.90;;;6.40;66.60;;;;;;2374095;54;21017;-70
2023/03/11 03:15:07;;;;;;;2.85;1.00;;;6.40;66.60;;;;;;2301552;55;20925;-70
2023/03/11 03:18:11;;;;;;;2.20;0.80;;;6.30;66.60;;;;;;2276659;56;20973;-70
2023/03/11 03:20:37;;;;;;;2.00;0.73;;;6.30;66.20;;;;;;2274837;56;21927;-70
2023/03/11 03:23:03;;;;;;;3.03;0.70;;;6.30;66.70;;;;;;2280720;56;21468;-70
2023/03/11 03:25:30;;;;;;;2.08;0.85;;;6.20;66.80;;;;;;2268871;56;21034;-70
2023/03/11 03:27:56;;;;;;;1.98;0.60;;;6.20;66.80;;;;;;2259049;56;20972;-70
2023/03/11 03:30:22;;;;;;;2.92;0.90;;;6.20;66.80;;;;;;2275456;56;21472;-70
2023/03/11 03:32:48;;;;;;;2.55;0.82;;;6.20;66.80;;;;;;2277024;56;21479;-70
2023/03/11 03:35:15;;;;;;;1.95;0.90;;;6.20;66.70;;;;;;2286154;55;20923;-70
2023/03/11 03:37:41;;;;;;;1.62;0.68;;;6.20;66.70;;;;;;2370700;55;20971;-70
2023/03/11 03:40:08;;;;;;;2.08;0.80;;;6.20;66.60;;;;;;2388988;54;20969;-70
2023/03/11 03:42:35;;;;;;;2.28;0.90;;;6.10;66.50;;;;;;2302647;55;22188;-70
2023/03/11 03:45:02;;;;;;;2.90;0.80;;;6.10;66.40;;;;;;2302774;55;20933;-70
2023/03/11 03:47:28;;;;;;;3.03;1.02;;;6.00;66.40;;;;;;2301982;55;20918;-70
2023/03/11 03:49:54;;;;;;;2.50;0.90;;;6.00;66.40;;;;;;2302124;56;21287;-70
2023/03/11 03:52:20;;;;;;;2.05;0.85;;;5.90;66.30;;;;;;2338527;54;20922;-70
2023/03/11 03:54:46;;;;;;;2.55;0.88;;;5.90;66.40;;;;;;2302238;55;21340;-69
2023/03/11 03:57:13;;;;;;;3.20;0.90;;;5.90;66.60;;;;;;2440708;54;20913;-70
2023/03/11 03:59:39;;;;;;;3.85;1.05;;;5.90;66.60;;;;;;2276423;55;21011;-70
2023/03/11 04:02:05;;;;;;;3.33;0.85;;;5.90;66.80;;;;;;2276478;55;21015;-70
2023/03/11 04:04:31;;;;;;;6.57;2.95;;;5.90;66.80;;;;;;2276708;56;21420;-70
2023/03/11 04:06:58;;;;;;;5.07;2.00;;;5.90;66.90;;;;;;2276933;55;21321;-70
2023/03/11 04:09:24;;;;;;;4.95;1.77;;;5.80;66.80;;;;;;2276250;55;20939;-69
2023/03/11 04:11:50;;;;;;;3.45;1.12;;;5.80;66.90;;;;;;2509752;54;20951;-70
2023/03/11 04:14:16;;;;;;;2.50;1.10;;;5.80;66.80;;;;;;2276514;55;20931;-70
2023/03/11 04:16:43;;;;;;;2.80;0.98;;;5.80;66.90;;;;;;2276440;55;21481;-70
2023/03/11 04:19:09;;;;;;;1.73;0.93;;;5.80;66.80;;;;;;2340939;54;20966;-69
2023/03/11 04:21:35;;;;;;;2.87;1.17;;;5.70;66.80;;;;;;2509704;54;21002;-70
2023/03/11 04:24:01;;;;;;;2.85;0.80;;;5.70;66.70;;;;;;2276853;55;21434;-69
2023/03/11 04:26:28;;;;;;;3.55;0.90;;;5.70;66.80;;;;;;2326230;55;20944;-70
2023/03/11 04:28:54;;;;;;;3.05;1.00;;;5.70;66.70;;;;;;2526712;54;20949;-69
2023/03/11 04:31:20;;;;;;;2.50;0.90;;;5.60;66.50;;;;;;2276211;56;20947;-70
2023/03/11 04:33:46;;;;;;;1.83;0.73;;;5.60;66.40;;;;;;2509737;54;21843;-69
2023/03/11 04:36:12;;;;;;;3.87;1.00;;;5.60;66.50;;;;;;2280239;56;21448;-69
2023/03/11 04:38:39;;;;;;;1.80;0.75;;;5.60;66.50;;;;;;2356231;55;21986;-69
2023/03/11 04:41:05;;;;;;;2.37;0.73;;;5.50;66.50;;;;;;2276451;55;21602;-70
2023/03/11 04:43:32;;;;;;;1.77;0.80;;;5.50;66.50;;;;;;2310454;54;21464;-69
2023/03/11 04:46:22;;;;;;;3.87;0.90;;;5.50;66.50;;;;;;2274998;56;20951;-69
2023/03/11 04:48:49;;;;;;;3.00;1.02;;;5.40;66.00;;;;;;2276038;56;20920;-69
2023/03/11 04:51:15;;;;;;;4.10;0.90;;;5.40;66.40;;;;;;2276422;56;21361;-69
2023/03/11 04:53:41;;;;;;;2.25;1.00;;;5.40;66.40;;;;;;2276689;56;20979;-69
2023/03/11 04:56:07;;;;;;;1.83;0.70;;;5.30;66.40;;;;;;2276498;56;20954;-69
2023/03/11 04:58:34;;;;;;;4.82;1.08;;;5.30;66.40;;;;;;2276726;56;21398;-69
2023/03/11 05:01:00;;;;;;;3.20;1.00;;;5.30;66.40;;;;;;2276891;56;21369;-70
2023/03/11 05:03:26;;;;;;;4.25;0.90;;;5.20;66.30;;;;;;2276305;56;21480;-69
2023/03/11 05:05:55;;;;;;;2.03;0.73;;;5.20;66.50;;;;;;2460103;54;20969;-69
2023/03/11 05:08:22;;;;;;;2.03;0.70;;;5.10;66.30;;;;;;2276515;56;21546;-69
2023/03/11 05:10:50;;;;;;;2.05;0.60;;;5.10;66.30;;;;;;2456901;54;21666;-69
2023/03/11 05:13:16;;;;;;;2.80;0.90;;;5.10;66.30;;;;;;2276143;55;21292;-70
2023/03/11 05:16:07;;;;;;;2.37;0.80;;;5.00;66.40;;;;;;2298427;56;21033;-69
2023/03/11 05:18:33;;;;;;;2.00;0.80;;;5.00;66.10;;;;;;2298718;56;21473;-69
2023/03/11 05:20:59;;;;;;;1.95;0.75;;;5.00;66.50;;;;;;2536510;54;21545;-69
2023/03/11 05:23:26;;;;;;;3.78;0.80;;;4.90;66.50;;;;;;2298163;56;21482;-69
2023/03/11 05:25:52;;;;;;;2.95;0.95;;;4.90;66.60;;;;;;2298104;56;21430;-69
2023/03/11 05:28:18;;;;;;;2.55;0.90;;;4.90;66.60;;;;;;2536123;54;21758;-69
2023/03/11 05:30:44;;;;;;;3.30;1.30;;;4.90;66.70;;;;;;2297972;56;21546;-69
2023/03/11 05:33:11;;;;;;;2.37;0.75;;;4.90;66.80;;;;;;2390900;54;21458;-69
2023/03/11 05:35:37;;;;;;;2.12;0.80;;;4.80;66.70;;;;;;2306033;53;21477;-69
2023/03/11 05:38:03;;;;;;;2.30;0.90;;;4.80;66.80;;;;;;2298272;56;21112;-69
2023/03/11 05:40:29;;;;;;;3.92;1.17;;;4.80;66.80;;;;;;2298188;56;21080;-69
2023/03/11 05:42:56;;;;;;;2.35;0.98;;;4.80;66.80;;;;;;2298648;55;21434;-69
2023/03/11 05:45:22;;;;;;;2.20;0.93;;;4.80;66.80;;;;;;2298178;55;21017;-69
2023/03/11 05:47:48;;;;;;;5.37;1.12;;;4.80;66.90;;;;;;2385374;53;20965;-69
2023/03/11 05:50:14;;;;;;;3.92;0.88;;;4.80;67.00;;;;;;2352304;54;20965;-69
2023/03/11 05:52:40;;;;;;;2.15;0.90;;;4.70;67.00;;;;;;2297941;55;21438;-69
2023/03/11 05:55:08;;;;;;;4.12;1.00;;;4.70;67.00;;;;;;2298251;56;21106;-69
2023/03/11 05:57:34;;;;;;;3.45;1.12;;;4.70;67.00;;;;;;2298439;56;21513;-69
2023/03/11 06:00:02;;;;;;;1.92;0.77;;;4.70;67.00;;;;;;2298517;55;20953;-69
2023/03/11 06:02:28;;;;;;;3.35;1.10;;;4.70;67.00;;;;;;2298084;55;20945;-69
2023/03/11 06:04:54;;;;;;;1.85;0.70;;;4.70;67.10;;;;;;2384329;54;22191;-69
2023/03/11 06:07:21;;;;;;;2.90;0.95;;;4.70;67.20;;;;;;2298345;55;21032;-69
2023/03/11 06:09:49;;;;;;;3.75;1.08;;;4.60;67.10;;;;;;2388724;54;21363;-69
2023/03/11 06:12:15;;;;;;;2.62;0.90;;;4.70;67.30;;;;;;2279207;56;20988;-69
2023/03/11 06:14:41;;;;;;;7.20;1.20;;;4.60;67.30;;;;;;2298146;56;21280;-69
2023/03/11 06:17:07;;;;;;;5.35;1.12;;;4.60;67.40;;;;;;2298233;56;21567;-69
2023/03/11 06:19:34;;;;;;;3.00;0.90;;;4.60;67.50;;;;;;2311744;53;21009;-69
2023/03/11 06:22:01;;;;;;;3.87;1.27;;;4.60;67.50;;;;;;2298506;56;20974;-69
2023/03/11 06:24:27;;;;;;;3.42;1.10;;;4.60;67.70;;;;;;2483201;54;21504;-69
2023/03/11 06:26:53;;;;;;;4.03;1.20;;;4.60;67.70;;;;;;2386845;54;21494;-69
2023/03/11 06:29:23;;;;;;;5.45;1.30;;;4.70;67.90;;;;;;2297845;56;21032;-69
2023/03/11 06:31:49;;;;;;;4.70;1.20;;;4.70;68.00;;;;;;2298208;55;21013;-69
2023/03/11 06:34:15;;;;;;;3.47;1.00;;;4.70;68.00;;;;;;2298450;56;21485;-69
2023/03/11 06:36:41;;;;;;;2.40;0.98;;;4.70;68.10;;;;;;2303784;54;21458;-69
2023/03/11 06:39:09;;;;;;;2.90;1.20;;;4.70;68.20;;;;;;2298489;56;21551;-69
2023/03/11 06:41:36;;;;;;;4.32;1.30;;;4.70;68.30;;;;;;2396279;54;20992;-69
2023/03/11 06:44:03;;;;;;;2.35;1.30;;;4.70;68.30;;;;;;2298570;56;21084;-69
2023/03/11 06:46:30;;;;;;;2.85;1.05;;;4.70;68.30;;;;;;2298238;56;21457;-70
2023/03/11 06:48:56;;;;;;;4.47;1.30;;;4.70;68.40;;;;;;2298252;56;21573;-69
2023/03/11 06:51:22;;;;;;;4.70;1.25;;;4.80;68.50;;;;;;2298318;55;21337;-69
2023/03/11 06:53:52;;;;;;;2.45;0.95;;;4.80;68.60;;;;;;2297952;55;21364;-69
2023/03/11 06:56:19;;;;;;;2.67;1.10;;;4.90;68.70;;;;;;2298148;56;21005;-70
2023/03/11 06:58:45;;;;;;;5.37;1.30;;;4.90;68.70;;;;;;2301625;54;21613;-69
2023/03/11 07:01:16;;;;;;;4.55;1.30;;;4.90;68.80;;;;;;2298085;56;21474;-70
2023/03/11 07:03:42;;;;;;;3.33;1.05;;;4.90;68.90;;;;;;2298441;55;20961;-70
2023/03/11 07:06:19;;;;;;;6.10;1.27;;;5.00;69.00;;;;;;2298112;56;21502;-70
2023/03/11 07:08:46;;;;;;;2.65;1.20;;;5.00;69.00;;;;;;2279400;56;21419;-70
2023/03/11 07:11:17;;;;;;;3.67;1.27;;;5.10;69.10;;;;;;2407319;54;21578;-69
2023/03/11 07:13:43;;;;;;;4.57;1.20;;;5.10;69.10;;;;;;2316832;55;21465;-70
2023/03/11 07:16:17;;;;;;;4.15;1.00;;;5.10;69.20;;;;;;2352158;55;21502;-69
2023/03/11 07:18:45;;;;;;;2.45;1.05;;;5.20;69.30;;;;;;2468574;54;20982;-70
2023/03/11 07:21:15;;;;;;;54.20;23.60;;;5.20;69.40;;;;;;2286854;55;21395;-70
2023/03/11 07:23:42;;;;;;;32.25;15.32;;;5.30;69.50;;;;;;2283711;55;21503;-70
2023/03/11 07:26:12;;;;;;;20.40;9.43;;;5.30;69.50;;;;;;2283162;55;21055;-70
2023/03/11 07:28:39;;;;;;;14.23;6.72;;;5.40;69.60;;;;;;2509614;54;21630;-69
2023/03/11 07:31:13;;;;;;;10.80;4.07;;;5.40;69.50;;;;;;2345422;55;21546;-70
2023/03/11 07:33:39;;;;;;;8.30;3.28;;;5.50;69.30;;;;;;2275755;56;21453;-70
2023/03/11 07:36:13;;;;;;;5.35;2.15;;;5.50;69.40;;;;;;2271123;56;21363;-70
2023/03/11 07:38:39;;;;;;;4.82;2.10;;;5.60;69.30;;;;;;2271840;56;21370;-70
2023/03/11 07:41:07;;;;;;;6.95;1.75;;;5.60;69.30;;;;;;2272172;56;21366;-70
2023/03/11 07:43:33;;;;;;;4.18;1.30;;;5.80;69.60;;;;;;2271149;55;21078;-70
2023/03/11 07:46:22;;;;;;;5.03;1.20;;;5.70;69.50;;;;;;2292902;54;21451;-70
2023/03/11 07:48:48;;;;;;;3.08;1.10;;;5.80;69.50;;;;;;2273654;56;21027;-70
2023/03/11 07:51:16;;;;;;;6.37;1.10;;;5.90;69.50;;;;;;2316776;55;21503;-70
2023/03/11 07:53:43;;;;;;;4.10;0.80;;;5.90;69.40;;;;;;2271085;56;22004;-70
2023/03/11 07:56:10;;;;;;;4.03;1.17;;;5.90;69.30;;;;;;2434253;55;21291;-70
2023/03/11 07:58:37;;;;;;;3.97;0.90;;;6.00;69.30;;;;;;2425013;54;21433;-70
2023/03/11 08:01:08;;;;;;;5.05;0.90;;;6.00;69.30;;;;;;2502843;54;21019;-70
2023/03/11 08:03:34;;;;;;;3.28;0.93;;;6.10;69.30;;;;;;2271414;56;21592;-70
2023/03/11 08:06:00;;;;;;;4.80;0.80;;;6.10;69.20;;;;;;2272860;56;20931;-70
2023/03/11 08:08:26;;;;;;;3.58;1.00;;;6.10;69.10;;;;;;2301249;55;21011;-70
2023/03/11 08:10:53;;;;;;;2.60;1.00;;;6.20;68.90;;;;;;2272390;56;20947;-70
2023/03/11 08:13:19;;;;;;;3.12;1.10;;;6.20;68.90;;;;;;2272017;56;20927;-70
2023/03/11 08:15:45;;;;;;;6.40;1.10;;;6.20;68.90;;;;;;2505020;55;20955;-70
2023/03/11 08:18:12;;;;;;;3.05;1.08;;;6.30;69.00;;;;;;2271733;56;21311;-70
2023/03/11 08:20:38;;;;;;;3.85;1.23;;;6.30;69.00;;;;;;2272356;55;22328;-70
2023/03/11 08:23:04;;;;;;;2.45;1.00;;;6.30;68.80;;;;;;2335504;55;20959;-71
2023/03/11 08:25:30;;;;;;;4.25;1.15;;;6.30;68.70;;;;;;2271985;56;20959;-70
2023/03/11 08:28:03;;;;;;;2.53;0.93;;;6.40;68.70;;;;;;2396001;55;20991;-70
2023/03/11 08:30:29;;;;;;;6.35;1.20;;;6.40;68.50;;;;;;2271611;56;21002;-71
2023/03/11 08:32:55;;;;;;;3.37;1.00;;;6.40;68.60;;;;;;2322003;55;21471;-71
2023/03/11 08:35:21;;;;;;;3.42;1.05;;;6.40;68.50;;;;;;2271876;55;21830;-71
2023/03/11 08:37:48;;;;;;;3.62;1.00;;;6.40;68.70;;;;;;2323009;55;20974;-71
2023/03/11 08:40:14;;;;;;;2.03;0.82;;;6.50;69.20;;;;;;2272333;55;20927;-71
2023/03/11 08:42:40;;;;;;;3.72;1.10;;;6.50;69.60;;;;;;2275954;55;20918;-71
2023/03/11 08:45:07;;;;;;;3.53;1.10;;;6.60;69.80;;;;;;2282433;56;21412;-70
2023/03/11 08:47:35;;;;;;;2.70;0.90;;;6.60;70.00;;;;;;2269463;56;21536;-71
2023/03/11 08:50:02;;;;;;;3.80;1.05;;;6.70;70.00;;;;;;2286987;55;20957;-71
2023/03/11 08:52:28;;;;;;;4.43;1.25;;;6.70;69.90;;;;;;2428913;54;20914;-71
2023/03/11 08:54:54;;;;;;;3.75;1.00;;;6.80;70.10;;;;;;2297422;55;20988;-72
2023/03/11 08:57:21;;;;;;;3.35;1.40;;;6.80;70.00;;;;;;2293664;56;20966;-72
2023/03/11 08:59:47;;;;;;;5.50;2.08;;;6.90;70.40;;;;;;2278446;56;21007;-72
2023/03/11 09:02:13;;;;;;;3.60;1.48;;;7.00;70.80;;;;;;2268650;56;21515;-72
2023/03/11 09:04:40;;;;;;;3.92;1.48;;;7.10;70.90;;;;;;2271418;56;21550;-72
2023/03/11 09:07:06;;;;;;;3.22;1.42;;;7.10;71.10;;;;;;2272942;56;20938;-72
2023/03/11 09:09:32;;;;;;;4.47;1.23;;;7.20;71.50;;;;;;2291258;55;20939;-71
2023/03/11 09:11:59;;;;;;;3.92;1.50;;;7.30;71.60;;;;;;2272416;56;20963;-72
2023/03/11 09:14:25;;;;;;;3.28;1.30;;;7.40;71.70;;;;;;2272479;56;20982;-71
2023/03/11 09:16:51;;;;;;;4.45;1.40;;;7.50;72.10;;;;;;2272426;56;21003;-72
2023/03/11 09:19:18;;;;;;;3.28;1.17;;;7.60;72.30;;;;;;2272761;56;20927;-72
2023/03/11 09:21:44;;;;;;;2.92;1.08;;;7.70;72.10;;;;;;2273286;56;21844;-73
2023/03/11 09:24:10;;;;;;;6.05;1.20;;;7.90;71.90;;;;;;2287945;56;20969;-70
2023/03/11 09:26:36;;;;;;;3.00;0.93;;;7.90;71.50;;;;;;2284985;55;20955;-72
2023/03/11 09:29:05;;;;;;;3.70;1.20;;;8.00;71.40;;;;;;2287697;55;21359;-74
2023/03/11 09:31:31;;;;;;;4.50;1.20;;;8.10;71.30;;;;;;2294676;55;20954;-73
2023/03/11 09:33:57;;;;;;;3.03;1.27;;;8.20;71.10;;;;;;2272533;56;21932;-70
2023/03/11 09:36:24;;;;;;;3.60;1.12;;;8.20;71.00;;;;;;2274889;56;20950;-73
2023/03/11 09:38:51;;;;;;;5.60;1.27;;;8.30;71.30;;;;;;2271523;56;20968;-70
2023/03/11 09:41:35;;;;;;;4.72;1.15;;;8.40;71.60;;;;;;2246459;58;21606;-73
2023/03/11 09:44:40;;;;;;;2.90;1.20;;;8.50;72.00;;;;;;2274890;55;21499;-72
2023/03/11 09:47:37;;;;;;;3.28;1.23;;;8.70;72.10;;;;;;2274113;56;21062;-72
2023/03/11 09:50:33;;;;;;;4.87;1.20;;;8.80;71.90;;;;;;2275022;55;21018;-73
2023/03/11 09:54:22;;;;;;;3.87;1.00;;;8.90;71.40;;;;;;2326036;54;20969;-73
2023/03/11 09:56:48;;;;;;;3.22;1.30;;;9.10;69.90;;;;;;2295724;54;21150;-72
2023/03/11 09:59:17;;;;;;;3.58;1.05;;;9.10;71.10;;;;;;2279613;55;21078;-72
2023/03/11 10:01:47;;;;;;;4.78;1.40;;;9.10;70.30;;;;;;2361649;54;1417173;-73
2023/03/11 10:04:20;;;;;;;3.62;0.85;;;9.20;69.80;;;;;;2276364;55;21033;-72
2023/03/11 10:06:47;;;;;;;3.33;1.10;;;9.20;69.60;;;;;;2332515;54;20996;-72
2023/03/11 10:10:13;;;;;;;4.22;1.00;;;9.20;69.50;;;;;;2296444;56;20982;-73
2023/03/11 10:13:18;;;;;;;2.00;0.80;;;9.20;66.90;;;;;;2380980;54;21025;-72
2023/03/11 10:15:48;;;;;;;3.83;0.75;;;9.20;68.00;;;;;;2295335;56;21008;-73
2023/03/11 10:19:08;;;;;;;2.57;0.80;;;9.20;69.00;;;;;;2296099;55;21956;-74
2023/03/11 10:25:15;;;;;;;3.85;0.73;;;9.30;68.80;;;;;;2296738;56;20973;-73
2023/03/11 10:28:04;;;;;;;1.87;0.60;;;9.30;67.00;;;;;;2330886;54;20977;-74
2023/03/11 10:30:35;;;;;;;4.20;1.15;;;9.40;68.30;;;;;;2296219;56;20936;-74
2023/03/11 10:34:27;;;;;;;5.07;1.27;;;9.30;69.40;;;;;;2331443;54;20930;-72
2023/03/11 10:37:02;;;;;;;3.90;1.00;;;9.40;67.50;;;;;;2291530;56;21041;-74
2023/03/11 10:39:32;;;;;;;3.42;0.95;;;9.50;69.80;;;;;;2296418;56;20980;-73
2023/03/11 10:42:09;;;;;;;4.70;1.00;;;9.60;70.10;;;;;;2291228;55;20957;-71
2023/03/11 10:44:39;;;;;;;2.70;0.80;;;9.70;70.00;;;;;;2336229;54;148635;-86
2023/03/11 10:47:11;;;;;;;3.20;0.88;;;9.70;70.00;;;;;;2429608;55;21876;-83
2023/03/11 10:49:37;;;;;;;2.12;0.57;;;9.80;69.80;;;;;;2459441;55;20949;-85
2023/03/11 10:52:03;;;;;;;5.05;1.05;;;9.80;69.50;;;;;;2234774;55;20994;-84
2023/03/11 10:54:36;;;;;;;2.70;0.75;;;9.80;69.30;;;;;;2458751;55;21000;-83
2023/03/11 10:57:04;;;;;;;2.33;0.82;;;9.90;69.20;;;;;;2486769;55;21053;-83
2023/03/11 10:59:49;;;;;;;2.22;0.80;;;9.90;69.80;;;;;;2485092;55;21002;-85
2023/03/11 11:02:49;;;;;;;2.33;0.60;;;10.00;68.70;;;;;;2485318;54;20978;-85
2023/03/11 11:05:27;;;;;;;3.67;0.70;;;10.10;66.70;;;;;;2485422;55;21299;-84
2023/03/11 11:11:30;;;;;;;2.75;0.80;;;10.10;68.00;;;;;;2483880;55;21703;-83
2023/03/11 11:13:58;;;;;;;2.45;0.65;;;10.20;65.90;;;;;;2261160;55;22100;-84
2023/03/11 11:16:24;;;;;;;4.18;0.70;;;10.30;68.20;;;;;;2484557;54;20986;-86
2023/03/11 11:20:55;;;;;;;2.58;0.85;;;10.30;68.30;;;;;;2487611;52;20918;-84
2023/03/11 11:24:13;;;;;;;2.33;0.70;;;10.30;65.60;;;;;;2261199;56;20981;-83
2023/03/11 11:26:39;;;;;;;2.92;0.90;;;10.30;66.30;;;;;;2486867;54;20973;-85
2023/03/11 11:29:24;;;;;;;3.65;0.85;;;10.40;68.30;;;;;;2488339;55;21014;-83
2023/03/11 11:31:50;;;;;;;3.65;0.90;;;10.40;67.30;;;;;;2259423;55;20957;-83
2023/03/11 11:34:33;;;;;;;2.83;1.00;;;10.40;67.50;;;;;;2262773;55;21069;-85
2023/03/11 11:37:03;;;;;;;2.55;0.85;;;10.50;66.10;;;;;;2483190;54;21334;-86
2023/03/11 11:39:40;;;;;;;2.12;0.85;;;10.40;67.30;;;;;;2260544;55;22004;-83
2023/03/11 11:42:10;;;;;;;3.00;1.02;;;10.50;67.10;;;;;;2484222;54;21048;-84
2023/03/11 11:44:36;;;;;;;2.92;0.73;;;10.50;67.40;;;;;;2487378;54;21066;-86
2023/03/11 11:47:57;;;;;;;3.55;0.85;;;10.50;67.10;;;;;;2465745;54;21038;-85
2023/03/11 11:50:47;;;;;;;4.65;1.20;;;10.50;66.00;;;;;;2489747;52;20989;-87
2023/03/11 11:53:35;;;;;;;3.95;0.90;;;10.60;66.20;;;;;;2483341;54;21002;-83
2023/03/11 11:56:01;;;;;;;2.70;0.85;;;10.60;66.70;;;;;;2481101;54;21512;-84
2023/03/11 11:58:29;;;;;;;2.62;1.10;;;10.70;67.40;;;;;;2483336;55;20958;-83
2023/03/11 12:01:14;;;;;;;6.60;1.60;;;10.70;66.80;;;;;;2457910;55;21013;-82
2023/03/11 12:04:07;;;;;;;2.85;1.25;;;10.60;65.80;;;;;;2255242;55;21184;-83
2023/03/11 12:08:33;;;;;;;4.55;1.02;;;10.60;65.20;;;;;;2482034;55;21105;-84
2023/03/11 12:11:17;;;;;;;2.10;0.82;;;10.60;64.70;;;;;;2483781;55;20942;-83
2023/03/11 12:17:00;;;;;;;3.05;0.80;;;10.60;65.60;;;;;;2484303;55;21180;-84
2023/03/11 12:19:42;;;;;;;3.33;0.77;;;10.70;65.00;;;;;;2482968;54;20957;-84
2023/03/11 12:25:20;;;;;;;2.25;0.85;;;10.70;66.40;;;;;;2485291;55;21156;-83
2023/03/11 12:28:13;;;;;;;2.15;0.70;;;10.70;64.30;;;;;;2484888;54;20986;-84
2023/03/11 12:30:47;;;;;;;5.37;0.90;;;10.60;66.40;;;;;;2483061;55;20946;-83
2023/03/11 12:33:23;;;;;;;5.78;1.00;;;10.60;66.30;;;;;;2482168;55;21166;-84
2023/03/11 12:35:53;;;;;;;2.12;0.70;;;10.70;66.90;;;;;;2482741;55;20998;-83
2023/03/11 12:41:41;;;;;;;1.90;0.80;;;10.70;66.80;;;;;;2482068;55;21645;-82
2023/03/11 12:44:22;;;;;;;2.20;0.60;;;10.70;64.20;;;;;;2254921;55;21995;-83
2023/03/11 12:47:23;;;;;;;2.58;0.90;;;10.70;65.70;;;;;;2481962;55;20988;-83
2023/03/11 12:50:35;;;;;;;5.18;0.90;;;10.70;64.30;;;;;;2481659;55;20977;-83
2023/03/11 12:53:02;;;;;;;3.60;0.85;;;10.80;66.10;;;;;;2481252;55;20978;-83
2023/03/11 12:55:32;;;;;;;4.30;1.02;;;10.80;66.80;;;;;;2481747;55;21081;-83
2023/03/11 12:58:17;;;;;;;2.95;0.82;;;10.70;66.60;;;;;;2255046;56;21006;-83
2023/03/11 13:01:11;;;;;;;2.03;0.73;;;10.80;65.70;;;;;;2254882;56;21116;-84
2023/03/11 13:04:00;;;;;;;1.87;0.60;;;10.80;64.70;;;;;;2481463;55;21448;-86
2023/03/11 13:06:39;;;;;;;2.47;0.75;;;10.80;65.40;;;;;;2482347;54;21574;-83
2023/03/11 13:09:15;;;;;;;2.00;0.62;;;10.80;65.20;;;;;;2483477;55;21069;-83
2023/03/11 13:11:43;;;;;;;2.55;0.73;;;10.70;65.10;;;;;;2482851;54;20974;-83
2023/03/11 13:14:37;;;;;;;2.12;0.70;;;10.70;65.70;;;;;;2482728;55;20966;-84
2023/03/11 13:17:29;;;;;;;3.42;0.88;;;10.80;64.70;;;;;;2484798;52;20957;-85
2023/03/11 13:19:56;;;;;;;4.75;0.93;;;10.80;64.90;;;;;;2487628;55;20946;-82
2023/03/11 13:22:43;;;;;;;3.50;1.00;;;10.80;66.60;;;;;;2484852;55;20956;-85
2023/03/11 13:27:48;;;;;;;2.62;0.80;;;10.90;65.90;;;;;;2483448;55;20978;-84
2023/03/11 13:30:21;;;;;;;2.28;0.93;;;11.00;64.20;;;;;;2483630;54;21002;-84
2023/03/11 13:33:22;;;;;;;2.87;1.00;;;11.00;66.80;;;;;;2481254;54;21015;-82
2023/03/11 13:36:02;;;;;;;4.25;0.85;;;11.10;66.60;;;;;;2482660;55;20958;-83
2023/03/11 13:39:07;;;;;;;2.55;1.00;;;11.10;66.30;;;;;;2483303;55;20946;-83
2023/03/11 13:41:36;;;;;;;2.67;0.80;;;11.20;65.40;;;;;;2483045;55;20950;-82
2023/03/11 13:44:47;;;;;;;2.25;0.93;;;11.20;66.30;;;;;;2483612;54;20971;-83